Latest Weather Observations for Hervey Bay

IDQ60801

Issued at 4:02 pm EST Thursday 2 April 2015 (issued every 30 minutes, with the page automatically refreshed every 10 minutes)

About weather observations | Map of weather stations | Latest weather observations for QLD | Other Formats
Station Details ID: 040405 Name: HERVEY BAY AIRPORT Lat: -25.32 Lon: 152.88 Height: 12.98 m
Data from the previous 72 hours. | See also: Recent months at Hervey Bay
Date/Time
EST
Temp
°C
App
Temp
°C
Dew
Point
Rel
Hum
%
Delta-T
°C
Wind Press
QNH
hPa
Press
MSL
hPa
Rain
since 9 am
mm
Dir
 
Spd
km/h
Gust
km/h
Spd
kts
Gust
kts
02/04:00pm 26.2 26.8 21.4 75 3.2 E 20 30 11 16 1013.0 1012.9 4.0
02/03:30pm 26.5 25.9 21.3 73 3.5 E 26 39 14 21 1012.9 1012.8 4.0
02/03:00pm 25.2 25.1 21.5 80 2.5 E 24 35 13 19 1012.8 1012.7 4.0
02/02:30pm 25.8 26.9 22.3 81 2.4 ESE 20 28 11 15 1012.9 1012.8 3.8
02/02:00pm 25.6 26.9 22.7 84 2.0 ESE 20 26 11 14 1013.1 1013.0 3.8
02/01:32pm 25.2 26.3 23.1 88 1.4 ESE 22 33 12 18 1013.4 1013.3 3.8
02/01:30pm 25.1 26.2 23.0 88 1.4 ESE 22 33 12 18 1013.5 1013.4 3.8
02/01:19pm 23.9 23.7 22.0 89 1.3 ESE 26 41 14 22 1013.7 1013.6 3.8
02/01:12pm 24.5 25.4 21.6 84 1.9 ESE 19 41 10 22 1013.8 1013.7 2.6
02/01:00pm 25.8 28.9 23.5 87 1.6 ESE 13 20 7 11 1013.8 1013.7 2.6
02/12:30pm 24.1 27.2 22.2 89 1.3 S 9 15 5 8 1014.3 1014.2 2.2
02/12:20pm 24.4 28.0 23.0 92 0.9 SSE 9 13 5 7 1014.5 1014.4 2.2
02/12:00pm 23.8 23.9 21.9 89 1.3 ESE 24 37 13 20 1015.0 1014.9 1.4
02/11:57am 23.7 23.2 21.4 87 1.5 ESE 26 37 14 20 1015.0 1014.9 1.0
02/11:30am 26.1 26.1 20.9 73 3.4 SE 22 35 12 19 1015.2 1015.1 0.2
02/11:00am 27.2 28.6 21.9 73 3.5 SE 17 24 9 13 1015.7 1015.6 0.2
02/10:30am 26.4 27.1 21.2 73 3.4 ESE 19 30 10 16 1016.1 1016.0 0.2
02/10:00am 25.7 26.1 20.9 75 3.2 ESE 20 32 11 17 1016.3 1016.2 0.2
02/09:30am 24.9 26.7 21.2 80 2.4 SSE 13 22 7 12 1016.5 1016.4 0.2
02/09:00am 24.4 26.0 21.5 84 1.9 SE 15 20 8 11 1016.8 1016.7 17.0
02/08:30am 23.8 25.4 21.5 87 1.5 SE 15 22 8 12 1016.6 1016.5 17.0
02/08:00am 22.7 25.5 21.5 93 0.8 SSE 9 17 5 9 1016.5 1016.4 17.0
02/07:30am 21.2 22.4 19.8 92 0.9 SSE 13 20 7 11 1016.2 1016.1 17.0
02/07:17am 21.1 21.9 19.9 93 0.8 SE 15 24 8 13 1016.2 1016.1 17.0
02/07:10am 20.8 22.0 19.8 94 0.6 SE 13 19 7 10 1016.3 1016.2 17.0
02/07:00am 20.6 20.9 19.6 94 0.6 SE 17 32 9 17 1016.3 1016.2 16.8
02/06:56am 20.8 21.6 19.8 94 0.6 SSE 15 32 8 17 1016.1 1016.0 16.2
02/06:50am 20.9 22.6 20.1 95 0.5 S 11 17 6 9 1016.0 1015.9 13.4
02/06:30am 20.7 21.9 19.9 95 0.5 SSW 13 17 7 9 1015.6 1015.5 12.6
02/05:30am 21.0 22.2 20.0 94 0.6 SSW 13 17 7 9 1015.2 1015.1 12.6
02/05:18am 20.9 22.9 19.9 94 0.6 SSW 9 15 5 8 1015.2 1015.1 12.6
02/05:05am 21.0 23.0 20.0 94 0.6 S 9 15 5 8 1015.1 1015.0 12.4
02/05:00am 21.0 23.0 20.0 94 0.6 S 9 15 5 8 1015.1 1015.0 12.2
02/04:30am 20.8 22.3 19.8 94 0.6 SSW 11 15 6 8 1014.9 1014.8 11.8
02/04:08am 20.9 22.1 19.9 94 0.6 SSW 13 20 7 11 1015.0 1014.9 11.8
02/04:00am 20.9 21.7 19.9 94 0.6 SSW 15 20 8 11 1014.9 1014.8 11.8
02/03:51am 20.7 22.6 19.7 94 0.6 S 9 15 5 8 1015.0 1014.9 11.6
02/03:30am 20.6 22.3 19.4 93 0.8 SW 9 11 5 6 1015.0 1014.9 10.6
02/03:12am 20.7 22.9 19.5 93 0.8 S 7 11 4 6 1015.1 1015.0 10.6
02/03:09am 20.7 22.9 19.5 93 0.8 S 7 11 4 6 1015.1 1015.0 10.6
02/03:00am 21.0 22.6 20.0 94 0.6 SSE 11 17 6 9 1015.2 1015.1 10.6
02/02:57am 21.1 22.4 20.1 94 0.6 SSE 13 20 7 11 1015.2 1015.1 10.6
02/02:49am 21.2 21.8 20.2 94 0.6 SSE 17 30 9 16 1015.5 1015.4 9.0
02/02:30am 20.7 21.8 19.7 94 0.6 SSW 13 19 7 10 1015.4 1015.3 7.8
02/02:00am 20.7 22.4 19.4 92 0.8 SSW 9 13 5 7 1015.6 1015.5 7.6
02/01:30am 21.0 22.8 19.5 91 1.0 SW 9 13 5 7 1015.8 1015.7 7.6
02/01:00am 21.3 23.2 19.8 91 1.0 SW 9 11 5 6 1016.3 1016.2 7.6
02/12:30am 22.0 24.6 20.1 89 1.2 SSW 6 7 3 4 1016.8 1016.7 7.6
02/12:00am 22.2 24.4 19.7 86 1.6 SE 7 11 4 6 1016.8 1016.7 7.6
 
Date/Time
EST
Temp
°C
App
Temp
°C
Dew
Point
Rel
Hum
%
Delta-T
°C
Wind Press
QNH
hPa
Press
MSL
hPa
Rain
since 9 am
mm
Dir
 
Spd
km/h
Gust
km/h
Spd
kts
Gust
kts
01/11:30pm 22.2 24.6 20.1 88 1.4 SSE 7 11 4 6 1017.1 1017.0 7.6
01/11:00pm 22.3 24.4 20.2 88 1.4 ESE 9 11 5 6 1017.3 1017.2 7.6
01/10:30pm 22.4 24.2 20.3 88 1.4 ESE 11 15 6 8 1017.3 1017.2 7.6
01/10:00pm 22.5 23.5 20.2 87 1.5 ESE 15 20 8 11 1017.4 1017.3 7.6
01/09:30pm 22.5 22.4 19.9 85 1.7 E 20 30 11 16 1017.7 1017.6 7.6
01/09:00pm 22.5 21.4 20.2 87 1.5 E 26 37 14 20 1017.8 1017.7 7.6
01/08:30pm 22.2 22.8 20.3 89 1.2 SE 17 28 9 15 1017.5 1017.4 7.6
01/08:00pm 21.9 21.7 19.8 88 1.3 ESE 20 32 11 17 1017.7 1017.6 7.6
01/07:30pm 21.9 21.4 20.0 89 1.2 SE 22 39 12 21 1017.3 1017.2 7.6
01/07:00pm 21.4 20.7 19.5 89 1.2 SE 22 37 12 20 1017.2 1017.1 7.4
01/06:30pm 21.3 23.5 20.3 94 0.6 SSE 9 15 5 8 1016.8 1016.7 7.2
01/06:00pm 20.9 22.8 19.7 93 0.8 S 9 13 5 7 1016.9 1016.8 7.0
01/05:30pm 21.0 23.2 19.6 92 0.9 S 7 11 4 6 1016.9 1016.8 6.8
01/05:00pm 21.2 22.7 19.8 92 0.9 SSE 11 17 6 9 1017.0 1016.9 6.6
01/04:30pm 21.4 22.6 19.9 91 1.0 SE 13 19 7 10 1016.9 1016.8 6.4
01/04:00pm 21.5 23.1 20.0 91 1.0 SSE 11 15 6 8 1016.7 1016.6 6.2
01/03:30pm 21.4 23.0 19.9 91 1.0 SE 11 19 6 10 1016.7 1016.6 5.8
01/03:00pm 21.3 23.0 20.1 93 0.8 SSE 11 20 6 11 1016.9 1016.8 5.8
01/02:38pm 21.1 21.8 19.7 92 0.9 SE 15 24 8 13 1017.1 1017.0 5.4
01/02:30pm 21.0 22.0 19.5 91 1.0 SE 13 24 7 13 1017.3 1017.2 5.0
01/02:18pm 21.5 23.0 19.8 90 1.1 E 11 17 6 9 1017.3 1017.2 4.0
01/02:00pm 21.6 22.7 19.7 89 1.2 E 13 17 7 9 1017.3 1017.2 2.8
01/01:51pm 21.3 21.8 19.2 88 1.3 ENE 15 20 8 11 1017.4 1017.3 2.6
01/01:37pm 21.2 20.8 19.3 89 1.2 E 20 30 11 16 1017.6 1017.5 2.6
01/01:30pm 21.9 22.2 19.5 86 1.5 ESE 17 30 9 16 1017.6 1017.5 1.6
01/01:00pm 21.8 23.8 19.9 89 1.2 SSE 9 15 5 8 1017.8 1017.7 1.4
01/12:43pm 21.2 22.4 19.1 88 1.3 SSE 11 17 6 9 1018.2 1018.1 1.4
01/12:30pm 21.4 21.7 19.7 90 1.1 ESE 17 24 9 13 1018.4 1018.3 1.4
01/12:22pm 21.9 21.9 20.2 90 1.1 ESE 20 28 11 15 1018.6 1018.5 0.6
01/12:00pm 22.3 23.5 20.0 87 1.5 ESE 13 24 7 13 1018.9 1018.8 0.4
01/11:30am 21.5 21.7 19.4 88 1.3 ESE 17 24 9 13 1019.2 1019.1 0.2
01/11:00am 22.0 20.9 19.5 86 1.6 ESE 24 32 13 17 1019.4 1019.3 0.2
01/10:30am 21.7 22.4 19.6 88 1.3 SE 15 22 8 12 1019.9 1019.8 0.0
01/10:00am 21.6 23.1 19.7 89 1.2 SE 11 19 6 10 1020.0 1019.9 0.0
01/09:30am 21.8 24.3 20.3 91 1.0 SE 7 11 4 6 1020.0 1019.9 0.0
01/09:00am 21.5 23.2 19.4 88 1.3 ENE 9 15 5 8 1020.1 1020.0 9.4
01/08:54am 21.7 24.2 20.3 92 0.9 E 7 11 4 6 1020.3 1020.2 9.4
01/08:34am 21.1 23.3 19.7 92 0.9 SE 7 20 4 11 1020.3 1020.2 8.2
01/08:30am 21.6 24.4 20.4 93 0.8 S 6 9 3 5 1020.3 1020.2 6.8
01/08:00am 21.5 24.2 20.3 93 0.8 SSW 6 7 3 4 1019.6 1019.5 6.8
01/07:54am 21.5 24.6 20.3 93 0.8 SW 4 7 2 4 1019.6 1019.5 6.6
01/07:34am 21.2 23.2 20.0 93 0.8 NE 9 15 5 8 1019.5 1019.4 6.0
01/07:30am 21.3 23.8 19.9 92 0.9 ESE 6 15 3 8 1019.4 1019.3 4.8
01/07:26am 21.3 24.9 19.8 91 1.0 CALM 0 6 0 3 1019.3 1019.2 1.2
01/07:00am 21.0 22.8 19.5 91 1.0 SSW 9 15 5 8 1018.7 1018.6 0.0
01/06:30am 20.4 20.8 18.9 91 0.9 SSW 15 20 8 11 1018.4 1018.3 0.0
01/06:00am 20.3 20.6 18.8 91 0.9 SSW 15 20 8 11 1018.1 1018.0 0.0
01/05:30am 20.4 20.7 18.7 90 1.1 SSW 15 20 8 11 1017.7 1017.6 0.0
01/05:00am 20.7 21.6 19.2 91 0.9 SSW 13 17 7 9 1017.2 1017.1 0.0
01/04:30am 21.0 21.9 19.3 90 1.1 SSW 13 17 7 9 1017.1 1017.0 0.0
01/04:00am 21.0 22.4 19.5 91 1.0 SSW 11 17 6 9 1017.3 1017.2 0.0
01/03:30am 20.8 22.0 19.1 90 1.1 S 11 19 6 10 1017.3 1017.2 0.0
01/03:00am 20.5 21.5 18.6 89 1.2 SSW 11 17 6 9 1017.4 1017.3 0.0
01/02:30am 20.6 21.3 18.9 90 1.1 SSW 13 19 7 10 1017.8 1017.7 0.0
01/02:00am 20.5 20.7 18.6 89 1.2 SSW 15 24 8 13 1018.2 1018.1 0.0
01/01:30am 20.8 21.8 18.7 88 1.3 SSW 11 19 6 10 1018.3 1018.2 0.0
01/01:00am 20.7 20.9 18.5 87 1.4 SW 15 22 8 12 1018.5 1018.4 0.0
01/12:30am 21.0 21.7 18.8 87 1.4 SSW 13 19 7 10 1018.6 1018.5 0.0
01/12:00am 21.1 21.7 18.7 86 1.5 SW 13 20 7 11 1019.1 1019.0 0.0
 
Date/Time
EST
Temp
°C
App
Temp
°C
Dew
Point
Rel
Hum
%
Delta-T
°C
Wind Press
QNH
hPa
Press
MSL
hPa
Rain
since 9 am
mm
Dir
 
Spd
km/h
Gust
km/h
Spd
kts
Gust
kts
31/11:30pm 21.4 22.1 18.8 85 1.6 SSW 13 19 7 10 1019.6 1019.5 0.0
31/11:00pm 21.6 22.7 18.8 84 1.8 SW 11 17 6 9 1020.6 1020.5 0.0
31/10:30pm 21.9 23.1 19.1 84 1.8 SW 11 19 6 10 1020.4 1020.3 0.0
31/10:00pm 22.6 24.3 19.4 82 2.0 SSW 9 11 5 6 1020.2 1020.1 0.0
31/09:30pm 22.5 24.0 18.9 80 2.3 SSW 9 15 5 8 1020.2 1020.1 0.0
31/09:00pm 22.7 23.9 18.3 76 2.8 SW 9 13 5 7 1020.6 1020.5 0.0
31/08:30pm 24.2 25.4 18.2 69 3.8 S 9 15 5 8 1020.9 1020.8 0.0
31/08:00pm 24.4 25.6 18.3 69 3.8 SSE 9 15 5 8 1020.5 1020.4 0.0
31/07:30pm 24.4 25.5 17.9 67 4.1 SSE 9 17 5 9 1020.0 1019.9 0.0
31/07:00pm 24.2 24.9 17.9 68 3.9 SSE 11 19 6 10 1019.3 1019.2 0.0
31/06:30pm 24.4 24.7 17.9 67 4.1 SE 13 20 7 11 1019.2 1019.1 0.0
31/06:00pm 24.6 25.0 18.1 67 4.1 SSE 13 17 7 9 1019.0 1018.9 0.0
31/05:30pm 24.8 25.1 18.0 66 4.3 SE 13 24 7 13 1018.4 1018.3 0.0
31/05:00pm 25.2 24.4 17.9 64 4.6 SSE 19 28 10 15 1018.6 1018.5 0.0
31/04:30pm 25.6 25.7 18.3 64 4.6 SE 15 20 8 11 1018.2 1018.1 0.0
31/04:00pm 26.1 25.2 18.2 61 5.0 ESE 20 35 11 19 1018.1 1018.0 0.0
31/03:30pm 26.4 25.3 17.7 58 5.5 ESE 20 30 11 16 1018.2 1018.1 0.0
31/03:00pm 26.2 26.8 17.8 60 5.3 SSE 11 17 6 9 1018.2 1018.1 0.0
31/02:30pm 25.6 26.5 18.3 64 4.6 SSW 11 17 6 9 1018.8 1018.7 0.0
31/02:00pm 25.4 25.5 19.1 68 4.0 SSW 17 24 9 13 1019.0 1018.9 0.0
31/01:30pm 27.0 25.3 16.3 52 6.6 ESE 20 28 11 15 1019.2 1019.1 0.0
31/01:00pm 28.5 27.2 16.7 48 7.4 ESE 19 26 10 14 1019.2 1019.1 0.0
31/12:30pm 27.8 26.0 16.1 49 7.2 ESE 20 30 11 16 1019.6 1019.5 0.0
31/12:00pm 27.9 27.6 17.4 52 6.6 E 15 22 8 12 1020.1 1020.0 0.0
31/11:30am 27.3 27.3 17.2 54 6.3 ESE 13 24 7 13 1020.7 1020.6 0.0
31/11:00am 28.6 27.8 17.2 50 7.2 ESE 17 24 9 13 1021.0 1020.9 0.0
31/10:30am 27.2 27.0 17.7 56 6.0 ESE 15 20 8 11 1021.2 1021.1 0.0
31/10:00am 26.4 25.8 17.5 58 5.6 SE 17 24 9 13 1021.2 1021.1 0.0
31/09:30am 26.7 25.3 16.9 55 6.1 ESE 20 28 11 15 1021.1 1021.0 0.0
31/09:00am 26.0 26.1 17.4 59 5.4 SE 13 22 7 12 1021.3 1021.2 0.0
31/08:30am 26.0 26.2 17.6 60 5.3 SSE 13 24 7 13 1021.4 1021.3 0.0
31/08:00am 24.7 25.5 17.2 63 4.6 SSE 9 13 5 7 1021.3 1021.2 0.0
31/07:30am 24.5 24.8 17.0 63 4.6 SE 11 19 6 10 1020.9 1020.8 0.0
31/07:00am 24.1 24.2 16.6 63 4.6 SE 11 17 6 9 1020.6 1020.5 0.0
31/06:30am 23.7 23.7 16.2 63 4.6 SE 11 19 6 10 1020.2 1020.1 0.0
31/06:00am 23.3 23.4 16.4 65 4.2 SE 11 17 6 9 1020.0 1019.9 0.0
31/05:30am 21.4 22.7 17.6 79 2.3 SSE 7 13 4 7 1019.9 1019.8 0.0
31/05:00am 21.0 22.5 18.0 83 1.9 SSW 7 9 4 5 1019.8 1019.7 0.0
31/04:30am 21.2 22.5 18.4 84 1.7 SSW 9 11 5 6 1019.9 1019.8 0.0
31/04:00am 21.0 22.0 17.8 82 2.0 SSW 9 11 5 6 1019.9 1019.8 0.0
31/03:30am 21.6 22.2 17.6 78 2.5 SSW 11 17 6 9 1019.6 1019.5 0.0
31/03:00am 23.1 24.4 17.6 71 3.4 S 7 9 4 5 1019.7 1019.6 0.0
31/02:30am 24.0 24.0 17.3 66 4.2 SSE 13 17 7 9 1020.1 1020.0 0.0
31/02:00am 23.2 24.1 18.3 74 3.1 SSE 11 17 6 9 1020.2 1020.1 0.0
31/01:30am 22.9 23.3 18.2 75 2.9 S 13 17 7 9 1020.6 1020.5 0.0
31/01:00am 23.1 23.9 19.1 78 2.5 ESE 13 19 7 10 1021.0 1020.9 0.0
31/12:30am 23.0 23.6 19.4 80 2.3 ESE 15 20 8 11 1021.3 1021.2 0.0
31/12:00am 23.6 24.3 18.9 75 3.0 SE 13 19 7 10 1021.2 1021.1 0.0
 
Date/Time
EST
Temp
°C
App
Temp
°C
Dew
Point
Rel
Hum
%
Delta-T
°C
Wind Press
QNH
hPa
Press
MSL
hPa
Rain
since 9 am
mm
Dir
 
Spd
km/h
Gust
km/h
Spd
kts
Gust
kts
30/11:30pm 22.0 23.7 18.4 80 2.3 SSW 7 9 4 5 1021.2 1021.1 0.0
30/11:00pm 23.1 24.4 18.4 75 2.9 SSE 9 15 5 8 1021.5 1021.4 0.0
30/10:30pm 23.7 24.4 18.8 74 3.1 SE 13 19 7 10 1021.7 1021.6 0.0
30/10:00pm 22.7 24.3 18.3 76 2.7 SSE 7 11 4 6 1021.9 1021.8 0.0
30/09:30pm 22.4 24.0 18.2 77 2.6 S 7 11 4 6 1022.1 1022.0 0.0
30/09:00pm 22.6 23.8 18.2 76 2.7 S 9 11 5 6 1022.1 1022.0 0.0
30/08:30pm 23.3 24.4 18.0 72 3.3 SSE 9 15 5 8 1022.0 1021.9 0.0
30/08:00pm 23.7 24.5 18.1 71 3.5 SSE 11 17 6 9 1021.7 1021.6 0.0
30/07:30pm 24.0 24.7 18.0 69 3.8 SE 11 15 6 8 1021.5 1021.4 0.0
30/07:00pm 24.2 24.5 17.9 68 3.9 SE 13 19 7 10 1021.3 1021.2 0.0
30/06:30pm 24.2 25.2 17.7 67 4.1 SE 9 17 5 9 1021.0 1020.9 0.0
30/06:00pm 24.5 24.5 17.2 63 4.5 SE 13 19 7 10 1020.6 1020.5 0.0
30/05:30pm 25.3 24.8 17.0 60 5.1 ESE 15 24 8 13 1020.3 1020.2 0.0
30/05:00pm 26.1 25.4 16.4 55 6.0 SE 15 24 8 13 1020.1 1020.0 0.0
30/04:30pm 26.4 25.1 16.9 56 5.9 SE 19 28 10 15 1019.8 1019.7 0.0

Other Formats:

Comma delimited format used in spreadsheet applications
http://www.bom.gov.au/fwo/IDQ60801/IDQ60801.95565.axf

JavaScript Object Notation format (JSON) in row-major order
http://www.bom.gov.au/fwo/IDQ60801/IDQ60801.95565.json